createdAt,value
2022-12-31T00:02:23.297Z,11.00
2022-12-31T00:06:34.700Z,11.00
2022-12-31T00:10:41.743Z,11.10
2022-12-31T00:14:47.430Z,11.20
2022-12-31T00:19:00.235Z,11.20
2022-12-31T00:23:05.599Z,11.30
2022-12-31T00:27:11.099Z,11.30
2022-12-31T00:31:38.191Z,11.30
2022-12-31T00:35:43.672Z,11.40
2022-12-31T00:39:49.151Z,11.40
2022-12-31T00:43:55.241Z,11.40
2022-12-31T00:48:00.684Z,11.50
2022-12-31T00:52:06.198Z,11.50
2022-12-31T00:56:16.724Z,11.50
2022-12-31T01:00:22.242Z,11.60
2022-12-31T01:04:27.717Z,11.60
2022-12-31T01:08:33.907Z,11.60
2022-12-31T01:12:39.371Z,11.60
2022-12-31T01:16:51.661Z,11.60
2022-12-31T01:21:01.782Z,11.60
2022-12-31T01:25:07.832Z,11.60
2022-12-31T01:29:14.067Z,11.70
2022-12-31T01:33:19.901Z,11.70
2022-12-31T01:37:25.377Z,11.70
2022-12-31T01:41:35.799Z,11.70
2022-12-31T01:45:43.681Z,11.80
2022-12-31T01:49:54.855Z,11.80
2022-12-31T01:54:04.156Z,11.80
2022-12-31T01:58:19.973Z,11.80
2022-12-31T02:02:25.568Z,11.90
2022-12-31T02:06:46.171Z,11.90
2022-12-31T02:10:51.631Z,11.90
2022-12-31T02:14:57.169Z,11.90
2022-12-31T02:19:40.633Z,12.00
2022-12-31T02:24:18.036Z,12.00
2022-12-31T02:28:55.564Z,12.00
2022-12-31T02:33:09.952Z,12.00
2022-12-31T02:37:17.955Z,12.00
2022-12-31T02:41:41.748Z,12.00
2022-12-31T02:46:03.213Z,12.00
2022-12-31T02:50:25.729Z,12.00
2022-12-31T02:54:58.338Z,12.10
2022-12-31T02:59:49.420Z,12.10
2022-12-31T03:04:15.032Z,12.10
2022-12-31T03:08:25.859Z,12.10
2022-12-31T03:12:48.899Z,12.10
2022-12-31T03:16:54.483Z,12.10
2022-12-31T03:21:18.580Z,12.10
2022-12-31T03:25:35.983Z,12.10
2022-12-31T03:29:41.359Z,12.10
2022-12-31T03:33:46.692Z,12.10
2022-12-31T03:37:52.863Z,12.00
2022-12-31T03:41:58.193Z,12.00
2022-12-31T03:46:03.646Z,12.00
2022-12-31T03:50:12.326Z,12.00
2022-12-31T03:54:17.917Z,11.90
2022-12-31T03:58:23.550Z,11.90
2022-12-31T04:02:29.698Z,11.90
2022-12-31T04:06:35.324Z,11.90
2022-12-31T04:10:40.844Z,11.80
2022-12-31T04:14:46.303Z,11.80
2022-12-31T04:18:51.799Z,11.80
2022-12-31T04:22:57.265Z,11.80
2022-12-31T04:27:07.498Z,11.80
2022-12-31T04:31:13.668Z,11.80
2022-12-31T04:35:19.268Z,11.80
2022-12-31T04:39:25.475Z,11.80
2022-12-31T04:43:31.051Z,11.80
2022-12-31T04:47:36.559Z,11.80
2022-12-31T04:51:42.133Z,11.80
2022-12-31T04:55:47.581Z,11.80
2022-12-31T04:59:53.018Z,11.70
2022-12-31T05:03:58.803Z,11.70
2022-12-31T05:08:04.473Z,11.70
2022-12-31T05:12:09.938Z,11.70
2022-12-31T05:16:15.500Z,11.70
2022-12-31T05:20:21.059Z,11.70
2022-12-31T05:24:26.498Z,11.70
2022-12-31T05:28:32.702Z,11.70
2022-12-31T05:32:38.517Z,11.70
2022-12-31T05:36:43.965Z,11.80
2022-12-31T05:40:49.430Z,11.70
2022-12-31T05:44:55.170Z,11.80
2022-12-31T05:49:00.683Z,11.80
2022-12-31T05:53:06.236Z,11.80
2022-12-31T05:57:12.038Z,11.80
2022-12-31T06:01:17.526Z,11.80
2022-12-31T06:05:26.331Z,11.80
2022-12-31T06:09:32.225Z,11.80
2022-12-31T06:13:37.656Z,11.80
2022-12-31T06:17:42.925Z,11.80
2022-12-31T06:21:48.257Z,11.80
2022-12-31T06:25:53.546Z,11.80
2022-12-31T06:29:58.927Z,11.80
2022-12-31T06:34:04.396Z,11.80
2022-12-31T06:38:09.718Z,11.80
2022-12-31T06:42:15.058Z,11.80
2022-12-31T06:46:20.417Z,11.70
2022-12-31T06:50:25.792Z,11.70
2022-12-31T06:54:31.242Z,11.80
2022-12-31T06:58:37.363Z,11.70
2022-12-31T07:02:48.367Z,11.80
2022-12-31T07:07:31.684Z,11.70
2022-12-31T07:12:05.539Z,11.80
2022-12-31T07:16:32.034Z,11.70
2022-12-31T07:20:37.759Z,11.70
2022-12-31T07:24:43.869Z,11.70
2022-12-31T07:28:55.652Z,11.70
2022-12-31T07:33:22.187Z,11.70
2022-12-31T07:37:39.605Z,11.70
2022-12-31T07:42:02.971Z,11.70
2022-12-31T07:46:34.032Z,11.70
2022-12-31T07:50:39.682Z,11.70
2022-12-31T07:54:45.058Z,11.70
2022-12-31T07:59:03.836Z,11.70
2022-12-31T08:03:38.103Z,11.60
2022-12-31T08:07:57.514Z,11.60
2022-12-31T08:12:04.007Z,11.70
2022-12-31T08:16:14.072Z,11.70
2022-12-31T08:20:19.605Z,11.70
2022-12-31T08:24:27.887Z,11.70
2022-12-31T08:28:54.912Z,11.70
2022-12-31T08:33:09.023Z,11.70
2022-12-31T08:37:38.433Z,11.70
2022-12-31T08:41:45.632Z,11.70
2022-12-31T08:45:54.136Z,11.70
2022-12-31T08:49:59.739Z,11.70
2022-12-31T08:54:05.395Z,11.70
2022-12-31T08:58:33.755Z,11.70
2022-12-31T09:03:16.213Z,11.70
2022-12-31T09:07:28.813Z,11.80
2022-12-31T09:11:49.813Z,11.80
2022-12-31T09:16:00.198Z,11.80
2022-12-31T09:20:06.468Z,11.80
2022-12-31T09:24:13.429Z,11.90
2022-12-31T09:28:33.275Z,11.90
2022-12-31T09:33:03.404Z,11.90
2022-12-31T09:37:18.728Z,12.00
2022-12-31T09:41:52.323Z,11.90
2022-12-31T09:46:39.882Z,12.00
2022-12-31T09:51:02.700Z,12.00
2022-12-31T09:55:37.949Z,11.90
2022-12-31T10:00:15.911Z,12.00
2022-12-31T10:04:42.159Z,12.00
2022-12-31T10:09:07.346Z,12.00
2022-12-31T10:13:31.227Z,12.00
2022-12-31T10:17:45.745Z,12.10
2022-12-31T10:23:04.351Z,12.10
2022-12-31T10:27:16.506Z,12.10
2022-12-31T10:32:01.658Z,12.10
2022-12-31T10:36:31.035Z,12.10
2022-12-31T10:41:16.892Z,12.10
2022-12-31T10:45:56.556Z,12.10
2022-12-31T10:50:55.642Z,12.10
2022-12-31T10:55:28.286Z,12.10
2022-12-31T11:00:09.303Z,12.10
2022-12-31T11:05:03.113Z,12.20
2022-12-31T11:09:51.807Z,12.20
2022-12-31T11:14:54.008Z,12.20
2022-12-31T11:19:20.627Z,12.20
2022-12-31T11:24:15.014Z,12.20
2022-12-31T11:29:01.500Z,12.30
2022-12-31T11:33:51.223Z,12.30
2022-12-31T11:38:21.444Z,12.30
2022-12-31T11:42:39.248Z,12.30
2022-12-31T11:46:47.797Z,12.30
2022-12-31T11:51:10.465Z,12.40
2022-12-31T11:56:04.370Z,12.30
2022-12-31T12:00:18.964Z,12.40
2022-12-31T12:04:24.625Z,12.40
2022-12-31T12:08:33.081Z,12.40
2022-12-31T12:12:42.987Z,12.50
2022-12-31T12:17:02.463Z,12.50
2022-12-31T12:21:15.958Z,12.60
2022-12-31T12:25:25.611Z,12.70
2022-12-31T12:29:35.579Z,12.70
2022-12-31T12:33:44.381Z,12.80
2022-12-31T12:38:06.695Z,12.80
2022-12-31T12:42:14.603Z,12.90
2022-12-31T12:46:47.945Z,13.00
2022-12-31T12:50:53.929Z,13.10
2022-12-31T12:55:59.317Z,13.20
2022-12-31T13:00:45.468Z,13.30
2022-12-31T13:05:31.433Z,13.40
2022-12-31T13:09:58.536Z,13.50
2022-12-31T13:14:38.058Z,13.50
2022-12-31T13:19:20.050Z,13.60
2022-12-31T13:23:40.169Z,13.70
2022-12-31T13:27:50.352Z,13.70
2022-12-31T13:31:56.928Z,13.80
2022-12-31T13:36:05.888Z,13.90
2022-12-31T13:40:55.425Z,13.90
2022-12-31T13:45:04.820Z,13.90
2022-12-31T13:49:39.630Z,14.00
2022-12-31T13:53:59.674Z,14.10
2022-12-31T13:58:18.889Z,14.10
2022-12-31T14:02:48.801Z,14.10
2022-12-31T14:07:39.081Z,14.10
2022-12-31T14:12:07.268Z,14.20
2022-12-31T14:16:46.937Z,14.20
2022-12-31T14:22:04.605Z,14.30
2022-12-31T14:26:36.218Z,14.30
2022-12-31T14:30:44.836Z,14.30
2022-12-31T14:35:27.279Z,14.30
2022-12-31T14:40:06.573Z,14.30
2022-12-31T14:45:02.849Z,14.30
2022-12-31T14:49:48.248Z,14.30
2022-12-31T14:53:56.878Z,14.30
2022-12-31T14:58:29.087Z,14.30
2022-12-31T15:02:35.484Z,14.30
2022-12-31T15:07:10.480Z,14.30
2022-12-31T15:11:50.546Z,14.30
2022-12-31T15:15:55.973Z,14.30
2022-12-31T15:20:17.655Z,14.30
2022-12-31T15:24:30.566Z,14.30
2022-12-31T15:28:39.784Z,14.30
2022-12-31T15:32:47.580Z,14.30
2022-12-31T15:36:55.973Z,14.30
2022-12-31T15:41:14.088Z,14.30
2022-12-31T15:45:31.857Z,14.30
2022-12-31T15:49:43.198Z,14.30
2022-12-31T15:53:54.302Z,14.30
2022-12-31T15:58:12.126Z,14.30
2022-12-31T16:02:28.284Z,14.20
2022-12-31T16:06:38.480Z,14.20
2022-12-31T16:10:44.448Z,14.20
2022-12-31T16:14:56.833Z,14.20
2022-12-31T16:19:02.313Z,14.20
2022-12-31T16:23:25.906Z,14.20
2022-12-31T16:27:32.233Z,14.20
2022-12-31T16:31:37.911Z,14.20
2022-12-31T16:35:44.571Z,14.20
2022-12-31T16:40:17.277Z,14.20
2022-12-31T16:44:30.672Z,14.20
2022-12-31T16:48:37.263Z,14.20
2022-12-31T16:52:45.705Z,14.20
2022-12-31T16:56:52.329Z,14.20
2022-12-31T17:01:21.147Z,14.20
2022-12-31T17:05:28.133Z,14.20
2022-12-31T17:09:37.812Z,14.20
2022-12-31T17:13:43.371Z,14.20
2022-12-31T17:17:58.332Z,14.20
2022-12-31T17:22:09.689Z,14.20
2022-12-31T17:26:26.229Z,14.10
2022-12-31T17:30:32.694Z,14.20
2022-12-31T17:34:56.456Z,14.10
2022-12-31T17:39:18.066Z,14.10
2022-12-31T17:43:24.629Z,14.10
2022-12-31T17:47:39.815Z,14.00
2022-12-31T17:51:47.771Z,14.00
2022-12-31T17:55:56.903Z,14.00
2022-12-31T18:00:17.248Z,13.90
2022-12-31T18:04:22.724Z,13.90
2022-12-31T18:08:29.048Z,13.90
2022-12-31T18:12:35.854Z,13.80
2022-12-31T18:16:41.837Z,13.80
2022-12-31T18:20:49.139Z,13.80
2022-12-31T18:24:55.376Z,13.70
2022-12-31T18:29:14.698Z,13.70
2022-12-31T18:33:23.791Z,13.70
2022-12-31T18:37:29.944Z,13.70
2022-12-31T18:41:49.645Z,13.70
2022-12-31T18:45:55.506Z,13.60
2022-12-31T18:50:00.964Z,13.50
2022-12-31T18:54:10.631Z,13.50
2022-12-31T18:58:16.470Z,13.50
2022-12-31T19:02:21.953Z,13.40
2022-12-31T19:06:28.728Z,13.40
2022-12-31T19:10:34.964Z,13.40
2022-12-31T19:14:40.584Z,13.40
2022-12-31T19:18:47.509Z,13.30
2022-12-31T19:22:53.078Z,13.30
2022-12-31T19:27:00.718Z,13.30
2022-12-31T19:31:06.218Z,13.30
2022-12-31T19:35:13.752Z,13.30
2022-12-31T19:39:21.478Z,13.30
2022-12-31T19:43:27.238Z,13.30
2022-12-31T19:47:32.756Z,13.20
2022-12-31T19:51:38.864Z,13.20
2022-12-31T19:55:44.383Z,13.20
2022-12-31T19:59:49.865Z,13.20
2022-12-31T20:03:56.397Z,13.30
2022-12-31T20:08:01.885Z,13.30
2022-12-31T20:12:07.371Z,13.30
2022-12-31T20:16:16.908Z,13.30
2022-12-31T20:20:29.112Z,13.30
2022-12-31T20:24:34.581Z,13.30
2022-12-31T20:28:40.054Z,13.30
2022-12-31T20:32:45.526Z,13.30
2022-12-31T20:36:50.975Z,13.40
2022-12-31T20:41:03.169Z,13.40
2022-12-31T20:45:10.959Z,13.50
2022-12-31T20:49:16.528Z,13.60
2022-12-31T20:53:22.108Z,13.60
2022-12-31T20:57:31.685Z,13.60
2022-12-31T21:02:11.790Z,13.70
2022-12-31T21:06:05.532Z,13.80
2022-12-31T21:10:11.042Z,13.80
2022-12-31T21:14:16.573Z,13.90
2022-12-31T21:18:23.034Z,13.90
2022-12-31T21:22:30.068Z,14.00
2022-12-31T21:26:35.752Z,14.00
2022-12-31T21:30:42.079Z,14.10
2022-12-31T21:35:06.393Z,14.10
2022-12-31T21:39:13.090Z,14.10
2022-12-31T21:43:18.792Z,14.20
2022-12-31T21:47:47.444Z,14.20
2022-12-31T21:52:11.671Z,14.30
2022-12-31T21:56:19.241Z,14.30
2022-12-31T22:00:43.724Z,14.60
2022-12-31T22:05:10.463Z,14.60
2022-12-31T22:09:15.073Z,14.50
2022-12-31T22:13:21.239Z,14.50
2022-12-31T22:17:27.067Z,14.60
2022-12-31T22:21:32.577Z,14.60
2022-12-31T22:25:38.988Z,14.60
2022-12-31T22:29:44.424Z,14.60
2022-12-31T22:33:50.438Z,14.70
2022-12-31T22:37:59.041Z,14.70
2022-12-31T22:42:07.137Z,14.70
2022-12-31T22:46:20.914Z,14.70
2022-12-31T22:50:26.376Z,14.70
2022-12-31T22:54:31.898Z,15.40
2022-12-31T22:58:37.831Z,15.00
2022-12-31T23:02:43.409Z,14.90
2022-12-31T23:06:48.979Z,14.90
2022-12-31T23:11:00.477Z,14.80
2022-12-31T23:15:25.488Z,14.80
2022-12-31T23:19:49.356Z,14.80
2022-12-31T23:23:54.852Z,14.80
2022-12-31T23:28:00.539Z,14.90
2022-12-31T23:32:07.251Z,15.40
2022-12-31T23:36:13.824Z,15.10
2022-12-31T23:40:21.754Z,15.00
2022-12-31T23:44:28.521Z,15.00
2022-12-31T23:48:33.974Z,15.00
2022-12-31T23:52:39.474Z,15.00
2022-12-31T23:56:45.001Z,15.00
